sensor_id;sensor_type;location;lat;lon;timestamp;temperature;humidity
78767;SHT31;68092;51.982;5.680;2024-02-26T00:00:50;10.1;59.1
78767;SHT31;68092;51.982;5.680;2024-02-26T00:03:19;10.0;59.2
78767;SHT31;68092;51.982;5.680;2024-02-26T00:05:47;10.0;59.1
78767;SHT31;68092;51.982;5.680;2024-02-26T00:08:16;10.0;59.2
78767;SHT31;68092;51.982;5.680;2024-02-26T00:10:44;10.0;59.2
78767;SHT31;68092;51.982;5.680;2024-02-26T00:13:13;10.0;59.1
78767;SHT31;68092;51.982;5.680;2024-02-26T00:15:41;10.0;59.1
78767;SHT31;68092;51.982;5.680;2024-02-26T00:18:10;10.0;59.1
78767;SHT31;68092;51.982;5.680;2024-02-26T00:20:38;10.0;59.2
78767;SHT31;68092;51.982;5.680;2024-02-26T00:23:09;10.0;59.3
78767;SHT31;68092;51.982;5.680;2024-02-26T00:25:38;10.0;59.2
78767;SHT31;68092;51.982;5.680;2024-02-26T00:28:09;10.0;59.0
78767;SHT31;68092;51.982;5.680;2024-02-26T00:30:39;10.0;59.1
78767;SHT31;68092;51.982;5.680;2024-02-26T00:33:08;10.0;59.1
78767;SHT31;68092;51.982;5.680;2024-02-26T00:35:37;10.0;59.1
78767;SHT31;68092;51.982;5.680;2024-02-26T00:38:06;10.0;59.2
78767;SHT31;68092;51.982;5.680;2024-02-26T00:40:34;10.0;59.0
78767;SHT31;68092;51.982;5.680;2024-02-26T00:43:03;10.0;58.9
78767;SHT31;68092;51.982;5.680;2024-02-26T00:45:32;10.0;58.9
78767;SHT31;68092;51.982;5.680;2024-02-26T00:48:01;10.0;59.1
78767;SHT31;68092;51.982;5.680;2024-02-26T00:50:31;10.0;58.9
78767;SHT31;68092;51.982;5.680;2024-02-26T00:53:01;10.0;59.0
78767;SHT31;68092;51.982;5.680;2024-02-26T00:55:29;10.0;58.9
78767;SHT31;68092;51.982;5.680;2024-02-26T00:57:58;10.0;59.0
78767;SHT31;68092;51.982;5.680;2024-02-26T01:00:26;10.0;58.9
78767;SHT31;68092;51.982;5.680;2024-02-26T01:02:55;10.0;58.9
78767;SHT31;68092;51.982;5.680;2024-02-26T01:05:24;10.0;58.9
78767;SHT31;68092;51.982;5.680;2024-02-26T01:07:53;10.0;58.9
78767;SHT31;68092;51.982;5.680;2024-02-26T01:10:21;10.0;59.0
78767;SHT31;68092;51.982;5.680;2024-02-26T01:12:50;10.0;58.9
78767;SHT31;68092;51.982;5.680;2024-02-26T01:15:20;10.0;59.1
78767;SHT31;68092;51.982;5.680;2024-02-26T01:17:50;10.0;58.7
78767;SHT31;68092;51.982;5.680;2024-02-26T01:20:19;10.0;58.8
78767;SHT31;68092;51.982;5.680;2024-02-26T01:22:48;10.0;58.9
78767;SHT31;68092;51.982;5.680;2024-02-26T01:25:20;10.0;58.8
78767;SHT31;68092;51.982;5.680;2024-02-26T01:27:48;10.1;58.7
78767;SHT31;68092;51.982;5.680;2024-02-26T01:30:20;10.1;58.5
78767;SHT31;68092;51.982;5.680;2024-02-26T01:32:48;10.1;58.6
78767;SHT31;68092;51.982;5.680;2024-02-26T01:35:17;10.1;58.6
78767;SHT31;68092;51.982;5.680;2024-02-26T01:37:46;10.1;58.6
78767;SHT31;68092;51.982;5.680;2024-02-26T01:40:18;10.1;58.5
78767;SHT31;68092;51.982;5.680;2024-02-26T01:42:47;10.1;58.5
78767;SHT31;68092;51.982;5.680;2024-02-26T01:45:16;10.1;58.5
78767;SHT31;68092;51.982;5.680;2024-02-26T01:47:52;10.1;58.5
78767;SHT31;68092;51.982;5.680;2024-02-26T01:50:21;10.0;58.8
78767;SHT31;68092;51.982;5.680;2024-02-26T01:52:51;10.0;58.7
78767;SHT31;68092;51.982;5.680;2024-02-26T01:55:23;10.1;58.6
78767;SHT31;68092;51.982;5.680;2024-02-26T01:57:52;10.1;58.7
78767;SHT31;68092;51.982;5.680;2024-02-26T02:00:22;10.1;58.4
78767;SHT31;68092;51.982;5.680;2024-02-26T02:02:51;10.1;58.5
78767;SHT31;68092;51.982;5.680;2024-02-26T02:05:21;10.1;58.5
78767;SHT31;68092;51.982;5.680;2024-02-26T02:07:53;10.1;58.4
78767;SHT31;68092;51.982;5.680;2024-02-26T02:10:22;10.1;58.6
78767;SHT31;68092;51.982;5.680;2024-02-26T02:12:52;10.1;58.8
78767;SHT31;68092;51.982;5.680;2024-02-26T02:15:20;10.1;58.5
78767;SHT31;68092;51.982;5.680;2024-02-26T02:17:49;10.1;58.7
78767;SHT31;68092;51.982;5.680;2024-02-26T02:20:18;10.1;58.8
78767;SHT31;68092;51.982;5.680;2024-02-26T02:22:47;10.1;58.6
78767;SHT31;68092;51.982;5.680;2024-02-26T02:25:18;10.1;58.8
78767;SHT31;68092;51.982;5.680;2024-02-26T02:27:46;10.1;59.0
78767;SHT31;68092;51.982;5.680;2024-02-26T02:30:15;10.1;58.9
78767;SHT31;68092;51.982;5.680;2024-02-26T02:32:44;10.1;58.8
78767;SHT31;68092;51.982;5.680;2024-02-26T02:35:13;10.1;58.7
78767;SHT31;68092;51.982;5.680;2024-02-26T02:37:42;10.1;58.6
78767;SHT31;68092;51.982;5.680;2024-02-26T02:40:10;10.1;58.5
78767;SHT31;68092;51.982;5.680;2024-02-26T02:42:41;10.1;58.7
78767;SHT31;68092;51.982;5.680;2024-02-26T02:45:10;10.1;58.6
78767;SHT31;68092;51.982;5.680;2024-02-26T02:47:39;10.1;58.5
78767;SHT31;68092;51.982;5.680;2024-02-26T02:50:08;10.1;58.2
78767;SHT31;68092;51.982;5.680;2024-02-26T02:52:37;10.1;58.4
78767;SHT31;68092;51.982;5.680;2024-02-26T02:55:06;10.1;58.7
78767;SHT31;68092;51.982;5.680;2024-02-26T02:57:35;10.1;58.6
78767;SHT31;68092;51.982;5.680;2024-02-26T03:00:09;10.1;58.7
78767;SHT31;68092;51.982;5.680;2024-02-26T03:02:38;10.1;58.6
78767;SHT31;68092;51.982;5.680;2024-02-26T03:05:07;10.1;58.7
78767;SHT31;68092;51.982;5.680;2024-02-26T03:07:36;10.1;58.7
78767;SHT31;68092;51.982;5.680;2024-02-26T03:10:04;10.1;58.8
78767;SHT31;68092;51.982;5.680;2024-02-26T03:12:34;10.1;58.8
78767;SHT31;68092;51.982;5.680;2024-02-26T03:15:03;10.1;58.7
78767;SHT31;68092;51.982;5.680;2024-02-26T03:17:31;10.1;58.8
78767;SHT31;68092;51.982;5.680;2024-02-26T03:20:00;10.1;58.9
78767;SHT31;68092;51.982;5.680;2024-02-26T03:22:30;10.1;58.5
78767;SHT31;68092;51.982;5.680;2024-02-26T03:24:59;10.1;58.2
78767;SHT31;68092;51.982;5.680;2024-02-26T03:27:28;10.1;58.5
78767;SHT31;68092;51.982;5.680;2024-02-26T03:29:56;10.1;58.6
78767;SHT31;68092;51.982;5.680;2024-02-26T03:32:25;10.1;58.7
78767;SHT31;68092;51.982;5.680;2024-02-26T03:34:53;10.1;58.7
78767;SHT31;68092;51.982;5.680;2024-02-26T03:37:23;10.1;58.6
78767;SHT31;68092;51.982;5.680;2024-02-26T03:39:51;10.1;58.5
78767;SHT31;68092;51.982;5.680;2024-02-26T03:42:20;10.1;58.5
78767;SHT31;68092;51.982;5.680;2024-02-26T03:44:48;10.1;58.1
78767;SHT31;68092;51.982;5.680;2024-02-26T03:47:16;10.1;58.5
78767;SHT31;68092;51.982;5.680;2024-02-26T03:49:45;10.1;58.4
78767;SHT31;68092;51.982;5.680;2024-02-26T03:52:13;10.1;58.5
78767;SHT31;68092;51.982;5.680;2024-02-26T03:54:43;10.1;58.3
78767;SHT31;68092;51.982;5.680;2024-02-26T03:57:11;10.1;58.2
78767;SHT31;68092;51.982;5.680;2024-02-26T03:59:39;10.1;58.3
78767;SHT31;68092;51.982;5.680;2024-02-26T04:02:08;10.1;58.2
78767;SHT31;68092;51.982;5.680;2024-02-26T04:04:37;10.1;58.2
78767;SHT31;68092;51.982;5.680;2024-02-26T04:07:06;10.2;58.2
78767;SHT31;68092;51.982;5.680;2024-02-26T04:09:34;10.2;58.3
78767;SHT31;68092;51.982;5.680;2024-02-26T04:12:03;10.2;58.1
78767;SHT31;68092;51.982;5.680;2024-02-26T04:14:32;10.2;58.1
78767;SHT31;68092;51.982;5.680;2024-02-26T04:17:01;10.2;57.9
78767;SHT31;68092;51.982;5.680;2024-02-26T04:19:29;10.2;58.0
78767;SHT31;68092;51.982;5.680;2024-02-26T04:22:01;10.2;58.2
78767;SHT31;68092;51.982;5.680;2024-02-26T04:24:30;10.2;58.0
78767;SHT31;68092;51.982;5.680;2024-02-26T04:26:58;10.2;58.0
78767;SHT31;68092;51.982;5.680;2024-02-26T04:29:27;10.2;58.1
78767;SHT31;68092;51.982;5.680;2024-02-26T04:31:55;10.2;58.2
78767;SHT31;68092;51.982;5.680;2024-02-26T04:34:23;10.1;58.2
78767;SHT31;68092;51.982;5.680;2024-02-26T04:36:52;10.1;58.6
78767;SHT31;68092;51.982;5.680;2024-02-26T04:39:20;10.1;58.8
78767;SHT31;68092;51.982;5.680;2024-02-26T04:41:49;10.1;59.0
78767;SHT31;68092;51.982;5.680;2024-02-26T04:44:17;10.1;58.7
78767;SHT31;68092;51.982;5.680;2024-02-26T04:46:46;10.1;58.7
78767;SHT31;68092;51.982;5.680;2024-02-26T04:49:14;10.1;58.6
78767;SHT31;68092;51.982;5.680;2024-02-26T04:51:43;10.0;58.8
78767;SHT31;68092;51.982;5.680;2024-02-26T04:54:11;10.0;58.9
78767;SHT31;68092;51.982;5.680;2024-02-26T04:56:40;10.0;59.0
78767;SHT31;68092;51.982;5.680;2024-02-26T04:59:08;10.0;59.2
78767;SHT31;68092;51.982;5.680;2024-02-26T05:01:37;10.0;59.5
78767;SHT31;68092;51.982;5.680;2024-02-26T05:04:06;9.9;59.6
78767;SHT31;68092;51.982;5.680;2024-02-26T05:06:38;9.9;59.4
78767;SHT31;68092;51.982;5.680;2024-02-26T05:09:07;9.9;59.6
78767;SHT31;68092;51.982;5.680;2024-02-26T05:11:35;9.9;59.6
78767;SHT31;68092;51.982;5.680;2024-02-26T05:14:04;9.9;59.3
78767;SHT31;68092;51.982;5.680;2024-02-26T05:16:32;9.9;59.4
78767;SHT31;68092;51.982;5.680;2024-02-26T05:19:01;9.9;59.7
78767;SHT31;68092;51.982;5.680;2024-02-26T05:21:29;9.9;59.6
78767;SHT31;68092;51.982;5.680;2024-02-26T05:23:58;9.8;60.0
78767;SHT31;68092;51.982;5.680;2024-02-26T05:26:27;9.8;60.4
78767;SHT31;68092;51.982;5.680;2024-02-26T05:28:56;9.8;60.3
78767;SHT31;68092;51.982;5.680;2024-02-26T05:31:27;9.8;60.3
78767;SHT31;68092;51.982;5.680;2024-02-26T05:33:55;9.8;60.3
78767;SHT31;68092;51.982;5.680;2024-02-26T05:36:24;9.8;60.5
78767;SHT31;68092;51.982;5.680;2024-02-26T05:38:54;9.8;60.3
78767;SHT31;68092;51.982;5.680;2024-02-26T05:41:24;9.8;60.7
78767;SHT31;68092;51.982;5.680;2024-02-26T05:43:53;9.8;60.8
78767;SHT31;68092;51.982;5.680;2024-02-26T05:46:22;9.8;60.6
78767;SHT31;68092;51.982;5.680;2024-02-26T05:48:52;9.8;60.7
78767;SHT31;68092;51.982;5.680;2024-02-26T05:51:22;9.7;61.1
78767;SHT31;68092;51.982;5.680;2024-02-26T05:53:50;9.7;60.8
78767;SHT31;68092;51.982;5.680;2024-02-26T05:56:22;9.7;60.9
78767;SHT31;68092;51.982;5.680;2024-02-26T05:58:51;9.7;61.1
78767;SHT31;68092;51.982;5.680;2024-02-26T06:01:21;9.7;61.4
78767;SHT31;68092;51.982;5.680;2024-02-26T06:03:50;9.7;61.2
78767;SHT31;68092;51.982;5.680;2024-02-26T06:06:19;9.7;61.5
78767;SHT31;68092;51.982;5.680;2024-02-26T06:08:49;9.7;61.3
78767;SHT31;68092;51.982;5.680;2024-02-26T06:11:17;9.7;61.5
78767;SHT31;68092;51.982;5.680;2024-02-26T06:13:47;9.7;61.4
78767;SHT31;68092;51.982;5.680;2024-02-26T06:16:16;9.7;61.3
78767;SHT31;68092;51.982;5.680;2024-02-26T06:18:44;9.7;61.2
78767;SHT31;68092;51.982;5.680;2024-02-26T06:21:13;9.7;61.2
78767;SHT31;68092;51.982;5.680;2024-02-26T06:23:41;9.7;61.3
78767;SHT31;68092;51.982;5.680;2024-02-26T06:26:10;9.7;61.4
78767;SHT31;68092;51.982;5.680;2024-02-26T06:28:39;9.7;61.7
78767;SHT31;68092;51.982;5.680;2024-02-26T06:31:07;9.7;61.6
78767;SHT31;68092;51.982;5.680;2024-02-26T06:33:36;9.7;61.4
78767;SHT31;68092;51.982;5.680;2024-02-26T06:36:05;9.6;61.7
78767;SHT31;68092;51.982;5.680;2024-02-26T06:38:34;9.7;61.7
78767;SHT31;68092;51.982;5.680;2024-02-26T06:41:02;9.7;61.8
78767;SHT31;68092;51.982;5.680;2024-02-26T06:43:31;9.7;62.0
78767;SHT31;68092;51.982;5.680;2024-02-26T06:46:00;9.7;61.7
78767;SHT31;68092;51.982;5.680;2024-02-26T06:48:28;9.7;61.7
78767;SHT31;68092;51.982;5.680;2024-02-26T06:50:57;9.7;61.4
78767;SHT31;68092;51.982;5.680;2024-02-26T06:53:26;9.7;61.4
78767;SHT31;68092;51.982;5.680;2024-02-26T06:55:54;9.7;61.4
78767;SHT31;68092;51.982;5.680;2024-02-26T06:58:24;9.7;61.6
78767;SHT31;68092;51.982;5.680;2024-02-26T07:00:52;9.7;61.5
78767;SHT31;68092;51.982;5.680;2024-02-26T07:03:21;9.7;61.4
78767;SHT31;68092;51.982;5.680;2024-02-26T07:05:51;9.7;61.6
78767;SHT31;68092;51.982;5.680;2024-02-26T07:08:20;9.7;61.6
78767;SHT31;68092;51.982;5.680;2024-02-26T07:10:49;9.6;61.6
78767;SHT31;68092;51.982;5.680;2024-02-26T07:13:17;9.6;61.9
78767;SHT31;68092;51.982;5.680;2024-02-26T07:15:47;9.6;62.3
78767;SHT31;68092;51.982;5.680;2024-02-26T07:18:15;9.6;62.3
78767;SHT31;68092;51.982;5.680;2024-02-26T07:20:44;9.6;62.3
78767;SHT31;68092;51.982;5.680;2024-02-26T07:23:13;9.6;62.2
78767;SHT31;68092;51.982;5.680;2024-02-26T07:25:41;9.6;62.1
78767;SHT31;68092;51.982;5.680;2024-02-26T07:28:10;9.6;62.4
78767;SHT31;68092;51.982;5.680;2024-02-26T07:30:39;9.6;62.5
78767;SHT31;68092;51.982;5.680;2024-02-26T07:33:07;9.6;62.6
78767;SHT31;68092;51.982;5.680;2024-02-26T07:35:36;9.6;63.1
78767;SHT31;68092;51.982;5.680;2024-02-26T07:38:05;9.7;62.8
78767;SHT31;68092;51.982;5.680;2024-02-26T07:40:33;9.7;62.9
78767;SHT31;68092;51.982;5.680;2024-02-26T07:43:02;9.7;62.8
78767;SHT31;68092;51.982;5.680;2024-02-26T07:45:31;9.7;63.2
78767;SHT31;68092;51.982;5.680;2024-02-26T07:48:00;9.7;63.1
78767;SHT31;68092;51.982;5.680;2024-02-26T07:50:28;9.7;63.0
78767;SHT31;68092;51.982;5.680;2024-02-26T07:52:57;9.7;63.3
78767;SHT31;68092;51.982;5.680;2024-02-26T07:55:26;9.7;63.2
78767;SHT31;68092;51.982;5.680;2024-02-26T07:57:54;9.7;63.5
78767;SHT31;68092;51.982;5.680;2024-02-26T08:00:23;9.7;63.8
78767;SHT31;68092;51.982;5.680;2024-02-26T08:02:53;9.7;63.9
78767;SHT31;68092;51.982;5.680;2024-02-26T08:05:23;9.7;63.8
78767;SHT31;68092;51.982;5.680;2024-02-26T08:07:51;9.7;64.0
78767;SHT31;68092;51.982;5.680;2024-02-26T08:10:21;9.7;63.8
78767;SHT31;68092;51.982;5.680;2024-02-26T08:12:49;9.7;63.8
78767;SHT31;68092;51.982;5.680;2024-02-26T08:15:18;9.7;63.8
78767;SHT31;68092;51.982;5.680;2024-02-26T08:17:47;9.7;63.9
78767;SHT31;68092;51.982;5.680;2024-02-26T08:20:16;9.7;64.0
78767;SHT31;68092;51.982;5.680;2024-02-26T08:22:45;9.7;63.9
78767;SHT31;68092;51.982;5.680;2024-02-26T08:25:14;9.7;63.8
78767;SHT31;68092;51.982;5.680;2024-02-26T08:27:45;9.7;63.6
78767;SHT31;68092;51.982;5.680;2024-02-26T08:30:17;9.7;63.7
78767;SHT31;68092;51.982;5.680;2024-02-26T08:32:48;9.7;63.8
78767;SHT31;68092;51.982;5.680;2024-02-26T08:35:16;9.7;64.0
78767;SHT31;68092;51.982;5.680;2024-02-26T08:37:46;9.7;64.0
78767;SHT31;68092;51.982;5.680;2024-02-26T08:40:15;9.7;64.1
78767;SHT31;68092;51.982;5.680;2024-02-26T08:42:45;9.7;64.1
78767;SHT31;68092;51.982;5.680;2024-02-26T08:45:15;9.7;64.5
78767;SHT31;68092;51.982;5.680;2024-02-26T08:47:46;9.7;64.7
78767;SHT31;68092;51.982;5.680;2024-02-26T08:50:15;9.7;65.1
78767;SHT31;68092;51.982;5.680;2024-02-26T08:52:43;9.7;64.9
78767;SHT31;68092;51.982;5.680;2024-02-26T08:55:15;9.7;64.8
78767;SHT31;68092;51.982;5.680;2024-02-26T08:57:43;9.8;65.0
78767;SHT31;68092;51.982;5.680;2024-02-26T09:00:13;9.8;65.1
78767;SHT31;68092;51.982;5.680;2024-02-26T09:02:42;9.8;64.8
78767;SHT31;68092;51.982;5.680;2024-02-26T09:05:16;9.8;65.0
78767;SHT31;68092;51.982;5.680;2024-02-26T09:07:45;9.8;65.1
78767;SHT31;68092;51.982;5.680;2024-02-26T09:10:15;9.8;65.1
78767;SHT31;68092;51.982;5.680;2024-02-26T09:12:44;9.8;65.0
78767;SHT31;68092;51.982;5.680;2024-02-26T09:15:12;9.8;64.8
78767;SHT31;68092;51.982;5.680;2024-02-26T09:17:41;9.9;64.9
78767;SHT31;68092;51.982;5.680;2024-02-26T09:20:12;9.9;65.0
78767;SHT31;68092;51.982;5.680;2024-02-26T09:22:41;9.9;65.0
78767;SHT31;68092;51.982;5.680;2024-02-26T09:25:12;9.9;64.6
78767;SHT31;68092;51.982;5.680;2024-02-26T09:27:42;9.9;64.6
78767;SHT31;68092;51.982;5.680;2024-02-26T09:30:12;9.9;64.7
78767;SHT31;68092;51.982;5.680;2024-02-26T09:32:46;9.9;64.7
78767;SHT31;68092;51.982;5.680;2024-02-26T09:35:16;9.9;64.9
78767;SHT31;68092;51.982;5.680;2024-02-26T09:37:45;9.9;65.2
78767;SHT31;68092;51.982;5.680;2024-02-26T09:40:16;9.9;65.2
78767;SHT31;68092;51.982;5.680;2024-02-26T09:42:45;9.9;65.3
78767;SHT31;68092;51.982;5.680;2024-02-26T09:45:18;9.9;65.0
78767;SHT31;68092;51.982;5.680;2024-02-26T09:47:48;9.9;65.1
78767;SHT31;68092;51.982;5.680;2024-02-26T09:50:20;9.9;65.0
78767;SHT31;68092;51.982;5.680;2024-02-26T09:52:52;9.9;65.1
78767;SHT31;68092;51.982;5.680;2024-02-26T09:55:21;9.9;65.2
78767;SHT31;68092;51.982;5.680;2024-02-26T09:57:53;9.9;65.1
78767;SHT31;68092;51.982;5.680;2024-02-26T10:00:23;9.9;65.2
78767;SHT31;68092;51.982;5.680;2024-02-26T10:02:55;9.9;65.2
78767;SHT31;68092;51.982;5.680;2024-02-26T10:05:26;9.9;64.9
78767;SHT31;68092;51.982;5.680;2024-02-26T10:07:58;9.9;65.0
78767;SHT31;68092;51.982;5.680;2024-02-26T10:10:28;9.9;65.3
78767;SHT31;68092;51.982;5.680;2024-02-26T10:12:59;9.9;65.4
78767;SHT31;68092;51.982;5.680;2024-02-26T10:15:28;9.9;65.2
78767;SHT31;68092;51.982;5.680;2024-02-26T10:17:58;9.9;65.3
78767;SHT31;68092;51.982;5.680;2024-02-26T10:20:26;9.9;65.2
78767;SHT31;68092;51.982;5.680;2024-02-26T10:22:55;9.9;64.9
78767;SHT31;68092;51.982;5.680;2024-02-26T10:25:24;9.9;65.3
78767;SHT31;68092;51.982;5.680;2024-02-26T10:27:54;9.9;65.1
78767;SHT31;68092;51.982;5.680;2024-02-26T10:30:26;9.9;64.8
78767;SHT31;68092;51.982;5.680;2024-02-26T10:32:57;9.9;65.0
78767;SHT31;68092;51.982;5.680;2024-02-26T10:35:27;9.9;65.2
78767;SHT31;68092;51.982;5.680;2024-02-26T10:37:57;9.9;65.2
78767;SHT31;68092;51.982;5.680;2024-02-26T10:40:25;9.9;65.8
78767;SHT31;68092;51.982;5.680;2024-02-26T10:42:54;9.9;65.4
78767;SHT31;68092;51.982;5.680;2024-02-26T10:45:22;9.9;65.4
78767;SHT31;68092;51.982;5.680;2024-02-26T10:47:54;9.9;65.6
78767;SHT31;68092;51.982;5.680;2024-02-26T10:50:23;9.9;65.5
78767;SHT31;68092;51.982;5.680;2024-02-26T10:52:55;9.9;65.6
78767;SHT31;68092;51.982;5.680;2024-02-26T10:55:24;9.9;65.7
78767;SHT31;68092;51.982;5.680;2024-02-26T10:57:55;9.9;65.6
78767;SHT31;68092;51.982;5.680;2024-02-26T11:00:26;9.9;65.3
78767;SHT31;68092;51.982;5.680;2024-02-26T11:02:57;9.9;65.2
78767;SHT31;68092;51.982;5.680;2024-02-26T11:05:31;9.9;65.5
78767;SHT31;68092;51.982;5.680;2024-02-26T11:08:03;9.9;65.7
78767;SHT31;68092;51.982;5.680;2024-02-26T11:10:33;9.9;65.7
78767;SHT31;68092;51.982;5.680;2024-02-26T11:13:07;9.9;65.5
78767;SHT31;68092;51.982;5.680;2024-02-26T11:15:39;9.9;65.6
78767;SHT31;68092;51.982;5.680;2024-02-26T11:18:09;9.9;65.9
78767;SHT31;68092;51.982;5.680;2024-02-26T11:20:40;9.9;66.0
78767;SHT31;68092;51.982;5.680;2024-02-26T11:23:09;9.9;65.8
78767;SHT31;68092;51.982;5.680;2024-02-26T11:25:38;10.0;65.8
78767;SHT31;68092;51.982;5.680;2024-02-26T11:28:13;10.0;65.8
78767;SHT31;68092;51.982;5.680;2024-02-26T11:30:47;10.0;65.4
78767;SHT31;68092;51.982;5.680;2024-02-26T11:33:17;10.1;65.4
78767;SHT31;68092;51.982;5.680;2024-02-26T11:35:46;10.1;65.1
78767;SHT31;68092;51.982;5.680;2024-02-26T11:38:21;10.1;65.4
78767;SHT31;68092;51.982;5.680;2024-02-26T11:40:50;10.1;65.3
78767;SHT31;68092;51.982;5.680;2024-02-26T11:43:23;10.1;65.4
78767;SHT31;68092;51.982;5.680;2024-02-26T11:45:52;10.1;65.6
78767;SHT31;68092;51.982;5.680;2024-02-26T11:48:28;10.1;65.6
78767;SHT31;68092;51.982;5.680;2024-02-26T11:50:58;10.1;65.2
78767;SHT31;68092;51.982;5.680;2024-02-26T11:53:28;10.1;65.3
78767;SHT31;68092;51.982;5.680;2024-02-26T11:56:24;10.1;65.4
78767;SHT31;68092;51.982;5.680;2024-02-26T11:58:59;10.1;65.5
78767;SHT31;68092;51.982;5.680;2024-02-26T12:01:38;10.1;65.2
78767;SHT31;68092;51.982;5.680;2024-02-26T12:04:11;10.1;65.5
78767;SHT31;68092;51.982;5.680;2024-02-26T12:06:45;10.1;65.4
78767;SHT31;68092;51.982;5.680;2024-02-26T12:09:33;10.1;65.7
78767;SHT31;68092;51.982;5.680;2024-02-26T12:12:04;10.1;65.8
78767;SHT31;68092;51.982;5.680;2024-02-26T12:14:37;10.1;66.1
78767;SHT31;68092;51.982;5.680;2024-02-26T12:17:07;10.1;65.7
78767;SHT31;68092;51.982;5.680;2024-02-26T12:19:37;10.1;65.7
78767;SHT31;68092;51.982;5.680;2024-02-26T12:22:07;10.1;65.4
78767;SHT31;68092;51.982;5.680;2024-02-26T12:24:36;10.1;65.8
78767;SHT31;68092;51.982;5.680;2024-02-26T12:27:05;10.1;65.9
78767;SHT31;68092;51.982;5.680;2024-02-26T12:29:34;10.1;65.5
78767;SHT31;68092;51.982;5.680;2024-02-26T12:32:04;10.1;65.7
78767;SHT31;68092;51.982;5.680;2024-02-26T12:34:34;10.0;65.7
78767;SHT31;68092;51.982;5.680;2024-02-26T12:37:05;10.0;65.9
78767;SHT31;68092;51.982;5.680;2024-02-26T12:39:36;10.0;66.1
78767;SHT31;68092;51.982;5.680;2024-02-26T12:42:07;10.0;66.2
78767;SHT31;68092;51.982;5.680;2024-02-26T12:44:36;10.0;66.2
78767;SHT31;68092;51.982;5.680;2024-02-26T12:47:05;10.0;66.0
78767;SHT31;68092;51.982;5.680;2024-02-26T12:49:36;10.0;65.9
78767;SHT31;68092;51.982;5.680;2024-02-26T12:52:08;10.0;66.2
78767;SHT31;68092;51.982;5.680;2024-02-26T12:54:39;10.0;66.2
78767;SHT31;68092;51.982;5.680;2024-02-26T12:57:09;10.1;66.1
78767;SHT31;68092;51.982;5.680;2024-02-26T12:59:38;10.1;66.1
78767;SHT31;68092;51.982;5.680;2024-02-26T13:02:08;10.1;65.6
78767;SHT31;68092;51.982;5.680;2024-02-26T13:04:38;10.1;66.1
78767;SHT31;68092;51.982;5.680;2024-02-26T13:07:09;10.1;65.9
78767;SHT31;68092;51.982;5.680;2024-02-26T13:09:40;10.1;66.0
78767;SHT31;68092;51.982;5.680;2024-02-26T13:12:14;10.1;66.1
78767;SHT31;68092;51.982;5.680;2024-02-26T13:14:42;10.1;66.1
78767;SHT31;68092;51.982;5.680;2024-02-26T13:17:11;10.1;66.2
78767;SHT31;68092;51.982;5.680;2024-02-26T13:19:52;10.1;66.0
78767;SHT31;68092;51.982;5.680;2024-02-26T13:22:22;10.1;66.0
78767;SHT31;68092;51.982;5.680;2024-02-26T13:24:58;10.2;66.2
78767;SHT31;68092;51.982;5.680;2024-02-26T13:27:30;10.2;66.1
78767;SHT31;68092;51.982;5.680;2024-02-26T13:30:09;10.2;65.8
78767;SHT31;68092;51.982;5.680;2024-02-26T13:32:39;10.2;66.0
78767;SHT31;68092;51.982;5.680;2024-02-26T13:35:11;10.3;65.9
78767;SHT31;68092;51.982;5.680;2024-02-26T13:37:41;10.3;65.9
78767;SHT31;68092;51.982;5.680;2024-02-26T13:40:13;10.3;65.7
78767;SHT31;68092;51.982;5.680;2024-02-26T13:42:43;10.3;65.7
78767;SHT31;68092;51.982;5.680;2024-02-26T13:45:14;10.3;65.4
78767;SHT31;68092;51.982;5.680;2024-02-26T13:47:43;10.3;65.1
78767;SHT31;68092;51.982;5.680;2024-02-26T13:50:11;10.3;65.4
78767;SHT31;68092;51.982;5.680;2024-02-26T13:52:41;10.4;66.0
78767;SHT31;68092;51.982;5.680;2024-02-26T13:55:12;10.4;65.4
78767;SHT31;68092;51.982;5.680;2024-02-26T13:57:41;10.4;65.5
78767;SHT31;68092;51.982;5.680;2024-02-26T14:00:10;10.4;65.6
78767;SHT31;68092;51.982;5.680;2024-02-26T14:02:39;10.4;65.9
78767;SHT31;68092;51.982;5.680;2024-02-26T14:05:08;10.4;65.6
78767;SHT31;68092;51.982;5.680;2024-02-26T14:07:37;10.4;65.6
78767;SHT31;68092;51.982;5.680;2024-02-26T14:10:06;10.5;65.6
78767;SHT31;68092;51.982;5.680;2024-02-26T14:12:37;10.5;65.7
78767;SHT31;68092;51.982;5.680;2024-02-26T14:15:07;10.5;65.4
78767;SHT31;68092;51.982;5.680;2024-02-26T14:17:36;10.5;64.8
78767;SHT31;68092;51.982;5.680;2024-02-26T14:20:09;10.5;65.2
78767;SHT31;68092;51.982;5.680;2024-02-26T14:22:37;10.5;64.6
78767;SHT31;68092;51.982;5.680;2024-02-26T14:25:06;10.5;65.1
78767;SHT31;68092;51.982;5.680;2024-02-26T14:27:35;10.5;65.1
78767;SHT31;68092;51.982;5.680;2024-02-26T14:30:05;10.5;64.6
78767;SHT31;68092;51.982;5.680;2024-02-26T14:32:34;10.5;64.6
78767;SHT31;68092;51.982;5.680;2024-02-26T14:35:04;10.5;64.3
78767;SHT31;68092;51.982;5.680;2024-02-26T14:37:33;10.5;64.7
78767;SHT31;68092;51.982;5.680;2024-02-26T14:40:02;10.5;64.7
78767;SHT31;68092;51.982;5.680;2024-02-26T14:42:31;10.5;64.6
78767;SHT31;68092;51.982;5.680;2024-02-26T14:45:00;10.5;64.9
78767;SHT31;68092;51.982;5.680;2024-02-26T14:47:28;10.5;64.5
78767;SHT31;68092;51.982;5.680;2024-02-26T14:49:57;10.5;64.6
78767;SHT31;68092;51.982;5.680;2024-02-26T14:52:25;10.5;64.8
78767;SHT31;68092;51.982;5.680;2024-02-26T14:54:54;10.5;64.9
78767;SHT31;68092;51.982;5.680;2024-02-26T14:57:25;10.5;64.6
78767;SHT31;68092;51.982;5.680;2024-02-26T14:59:54;10.5;64.8
78767;SHT31;68092;51.982;5.680;2024-02-26T15:02:22;10.5;64.2
78767;SHT31;68092;51.982;5.680;2024-02-26T15:04:51;10.5;64.1
78767;SHT31;68092;51.982;5.680;2024-02-26T15:07:21;10.5;64.6
78767;SHT31;68092;51.982;5.680;2024-02-26T15:09:50;10.5;64.2
78767;SHT31;68092;51.982;5.680;2024-02-26T15:12:22;10.5;63.2
78767;SHT31;68092;51.982;5.680;2024-02-26T15:14:52;10.5;63.5
78767;SHT31;68092;51.982;5.680;2024-02-26T15:17:20;10.5;63.7
78767;SHT31;68092;51.982;5.680;2024-02-26T15:19:49;10.5;64.0
78767;SHT31;68092;51.982;5.680;2024-02-26T15:22:17;10.5;64.2
78767;SHT31;68092;51.982;5.680;2024-02-26T15:24:46;10.5;64.4
78767;SHT31;68092;51.982;5.680;2024-02-26T15:27:14;10.5;63.2
78767;SHT31;68092;51.982;5.680;2024-02-26T15:29:44;10.5;63.8
78767;SHT31;68092;51.982;5.680;2024-02-26T15:32:12;10.5;63.9
78767;SHT31;68092;51.982;5.680;2024-02-26T15:34:41;10.5;63.5
78767;SHT31;68092;51.982;5.680;2024-02-26T15:37:09;10.5;63.5
78767;SHT31;68092;51.982;5.680;2024-02-26T15:39:38;10.5;63.8
78767;SHT31;68092;51.982;5.680;2024-02-26T15:42:06;10.5;63.5
78767;SHT31;68092;51.982;5.680;2024-02-26T15:44:37;10.6;63.0
78767;SHT31;68092;51.982;5.680;2024-02-26T15:47:06;10.6;63.0
78767;SHT31;68092;51.982;5.680;2024-02-26T15:49:35;10.6;62.6
78767;SHT31;68092;51.982;5.680;2024-02-26T15:52:06;10.6;62.8
78767;SHT31;68092;51.982;5.680;2024-02-26T15:54:37;10.6;62.9
78767;SHT31;68092;51.982;5.680;2024-02-26T15:57:06;10.6;62.7
78767;SHT31;68092;51.982;5.680;2024-02-26T15:59:36;10.6;63.0
78767;SHT31;68092;51.982;5.680;2024-02-26T16:02:04;10.6;62.8
78767;SHT31;68092;51.982;5.680;2024-02-26T16:04:35;10.6;62.8
78767;SHT31;68092;51.982;5.680;2024-02-26T16:07:05;10.6;62.5
78767;SHT31;68092;51.982;5.680;2024-02-26T16:09:38;10.6;62.7
78767;SHT31;68092;51.982;5.680;2024-02-26T16:12:12;10.6;61.9
78767;SHT31;68092;51.982;5.680;2024-02-26T16:14:48;10.6;62.2
78767;SHT31;68092;51.982;5.680;2024-02-26T16:17:24;10.6;62.4
78767;SHT31;68092;51.982;5.680;2024-02-26T16:19:53;10.6;62.0
78767;SHT31;68092;51.982;5.680;2024-02-26T16:22:22;10.6;61.7